createdAt,value
2022-08-28T00:00:26.963Z,76.73
2022-08-28T00:01:27.130Z,76.63
2022-08-28T00:02:27.082Z,76.53
2022-08-28T00:03:26.864Z,76.67
2022-08-28T00:04:27.091Z,76.67
2022-08-28T00:05:26.959Z,76.77
2022-08-28T00:06:26.867Z,76.77
2022-08-28T00:07:27.113Z,76.87
2022-08-28T00:08:26.853Z,76.46
2022-08-28T00:09:27.012Z,77.01
2022-08-28T00:10:26.831Z,76.70
2022-08-28T00:11:26.940Z,76.80
2022-08-28T00:12:26.864Z,77.01
2022-08-28T00:13:26.942Z,76.90
2022-08-28T00:14:26.975Z,77.21
2022-08-28T00:15:26.878Z,77.31
2022-08-28T00:16:26.808Z,77.75
2022-08-28T00:17:27.171Z,78.06
2022-08-28T00:18:26.751Z,77.95
2022-08-28T00:19:26.941Z,77.45
2022-08-28T00:20:26.758Z,77.55
2022-08-28T00:21:26.689Z,77.75
2022-08-28T00:22:26.865Z,77.89
2022-08-28T00:23:42.585Z,77.99
2022-08-28T00:24:26.917Z,78.40
2022-08-28T00:25:26.757Z,78.56
2022-08-28T00:26:26.697Z,78.30
2022-08-28T00:27:27.089Z,78.09
2022-08-28T00:28:26.686Z,78.19
2022-08-28T00:29:26.618Z,78.40
2022-08-28T00:30:26.604Z,78.23
2022-08-28T00:31:26.748Z,78.74
2022-08-28T00:32:26.813Z,78.84
2022-08-28T00:33:26.647Z,78.44
2022-08-28T00:34:32.866Z,78.53
2022-08-28T00:35:26.726Z,78.94
2022-08-28T00:36:26.574Z,79.14
2022-08-28T00:37:26.566Z,79.35
2022-08-28T00:38:26.748Z,79.79
2022-08-28T00:39:26.469Z,79.69
2022-08-28T00:40:28.783Z,79.59
2022-08-28T00:41:27.528Z,79.49
2022-08-28T00:42:26.449Z,79.79
2022-08-28T00:43:26.479Z,79.49
2022-08-28T00:44:26.697Z,80.60
2022-08-28T00:45:26.544Z,80.91
2022-08-28T00:46:26.481Z,80.80
2022-08-28T00:47:26.537Z,80.80
2022-08-28T00:48:26.597Z,80.71
2022-08-28T00:49:26.486Z,81.31
2022-08-28T00:50:26.506Z,81.01
2022-08-28T00:51:26.761Z,80.71
2022-08-28T00:52:26.521Z,81.21
2022-08-28T00:53:27.155Z,82.12
2022-08-28T00:54:26.574Z,82.33
2022-08-28T00:55:26.600Z,82.33
2022-08-28T00:56:26.388Z,82.84
2022-08-28T00:57:27.049Z,82.84
2022-08-28T00:58:26.362Z,82.03
2022-08-28T00:59:26.583Z,81.72
2022-08-28T01:00:26.491Z,80.60
2022-08-28T01:01:26.500Z,80.30
2022-08-28T01:02:26.704Z,80.91
2022-08-28T01:03:26.556Z,80.60
2022-08-28T01:04:26.453Z,81.31
2022-08-28T01:05:26.263Z,81.31
2022-08-28T01:06:26.190Z,81.52
2022-08-28T01:07:26.480Z,81.11
2022-08-28T01:08:26.191Z,80.71
2022-08-28T01:09:26.293Z,81.11
2022-08-28T01:10:26.362Z,81.58
2022-08-28T01:11:26.511Z,81.18
2022-08-28T01:12:26.172Z,81.18
2022-08-28T01:13:26.325Z,81.68
2022-08-28T01:14:26.534Z,81.27
2022-08-28T01:15:26.291Z,82.29
2022-08-28T01:16:31.670Z,81.99
2022-08-28T01:17:26.276Z,81.68
2022-08-28T01:18:26.095Z,81.38
2022-08-28T01:19:26.169Z,81.27
2022-08-28T01:20:26.128Z,81.48
2022-08-28T01:21:26.190Z,81.68
2022-08-28T01:22:26.206Z,81.99
2022-08-28T01:23:26.069Z,81.38
2022-08-28T01:24:26.154Z,81.68
2022-08-28T01:25:26.012Z,82.39
2022-08-28T01:26:26.225Z,82.19
2022-08-28T01:27:26.106Z,82.39
2022-08-28T01:28:26.102Z,82.09
2022-08-28T01:29:26.158Z,81.78
2022-08-28T01:30:25.981Z,82.12
2022-08-28T01:31:26.088Z,82.73
2022-08-28T01:32:26.066Z,82.73
2022-08-28T01:33:28.287Z,83.04
2022-08-28T01:34:26.023Z,83.14
2022-08-28T01:35:25.962Z,83.14
2022-08-28T01:36:26.043Z,83.04
2022-08-28T01:37:25.941Z,83.24
2022-08-28T01:38:26.951Z,83.34
2022-08-28T01:39:25.930Z,83.24
2022-08-28T01:40:25.821Z,83.14
2022-08-28T01:41:26.305Z,82.94
2022-08-28T01:42:26.065Z,83.24
2022-08-28T01:43:25.849Z,83.14
2022-08-28T01:44:25.926Z,83.14
2022-08-28T01:45:25.997Z,83.10
2022-08-28T01:46:25.890Z,82.90
2022-08-28T01:47:25.954Z,82.80
2022-08-28T01:48:25.815Z,82.39
2022-08-28T01:49:26.021Z,82.29
2022-08-28T01:50:25.869Z,82.70
2022-08-28T01:51:25.822Z,82.12
2022-08-28T01:52:26.471Z,82.64
2022-08-28T01:53:25.786Z,82.73
2022-08-28T01:54:25.730Z,82.94
2022-08-28T01:55:26.043Z,83.24
2022-08-28T01:56:25.687Z,83.14
2022-08-28T01:57:25.719Z,83.24
2022-08-28T01:58:25.770Z,83.34
2022-08-28T01:59:25.710Z,83.34
2022-08-28T02:00:25.735Z,83.54
2022-08-28T02:01:25.760Z,83.54
2022-08-28T02:02:25.882Z,83.75
2022-08-28T02:03:25.711Z,84.05
2022-08-28T02:04:31.662Z,84.05
2022-08-28T02:05:25.612Z,83.95
2022-08-28T02:06:25.596Z,84.30
2022-08-28T02:07:25.574Z,84.70
2022-08-28T02:08:25.722Z,84.60
2022-08-28T02:09:25.596Z,84.50
2022-08-28T02:10:25.635Z,84.80
2022-08-28T02:11:25.471Z,84.91
2022-08-28T02:12:25.612Z,84.70
2022-08-28T02:13:25.605Z,84.70
2022-08-28T02:14:25.524Z,84.50
2022-08-28T02:15:25.463Z,85.21
2022-08-28T02:16:25.430Z,85.01
2022-08-28T02:17:25.416Z,85.31
2022-08-28T02:18:25.477Z,85.31
2022-08-28T02:19:25.511Z,85.31
2022-08-28T02:20:25.539Z,85.41
2022-08-28T02:21:25.365Z,85.31
2022-08-28T02:22:25.334Z,85.46
2022-08-28T02:23:25.559Z,85.35
2022-08-28T02:24:25.690Z,85.25
2022-08-28T02:25:25.466Z,85.21
2022-08-28T02:26:25.453Z,85.11
2022-08-28T02:27:25.325Z,85.21
2022-08-28T02:28:25.359Z,85.15
2022-08-28T02:29:25.305Z,84.91
2022-08-28T02:30:25.252Z,84.80
2022-08-28T02:31:25.313Z,84.80
2022-08-28T02:32:25.240Z,84.70
2022-08-28T02:33:25.229Z,84.70
2022-08-28T02:34:25.205Z,84.60
2022-08-28T02:35:25.169Z,84.70
2022-08-28T02:36:25.177Z,84.80
2022-08-28T02:37:25.124Z,85.01
2022-08-28T02:38:25.179Z,84.70
2022-08-28T02:39:25.133Z,84.84
2022-08-28T02:40:25.146Z,84.60
2022-08-28T02:41:25.175Z,84.74
2022-08-28T02:42:25.090Z,84.84
2022-08-28T02:43:25.141Z,84.74
2022-08-28T02:44:25.102Z,84.74
2022-08-28T02:45:25.073Z,84.95
2022-08-28T02:46:25.118Z,85.46
2022-08-28T02:47:25.095Z,85.25
2022-08-28T02:48:25.084Z,85.25
2022-08-28T02:49:25.016Z,85.25
2022-08-28T02:50:25.043Z,85.25
2022-08-28T02:51:25.020Z,85.46
2022-08-28T02:52:25.020Z,85.60
2022-08-28T02:53:25.038Z,85.60
2022-08-28T02:54:24.970Z,85.80
2022-08-28T02:55:24.940Z,85.90
2022-08-28T02:56:24.943Z,85.90
2022-08-28T02:57:24.943Z,86.00
2022-08-28T02:58:24.929Z,85.80
2022-08-28T02:59:24.943Z,85.90
2022-08-28T03:00:24.902Z,85.90
2022-08-28T03:01:24.971Z,86.10
2022-08-28T03:02:24.931Z,86.31
2022-08-28T03:03:24.921Z,86.00
2022-08-28T03:04:24.945Z,86.00
2022-08-28T03:05:24.885Z,86.00
2022-08-28T03:06:24.895Z,86.45
2022-08-28T03:07:24.829Z,85.84
2022-08-28T03:08:27.324Z,86.04
2022-08-28T03:09:24.820Z,85.94
2022-08-28T03:10:24.830Z,86.19
2022-08-28T03:11:24.802Z,86.29
2022-08-28T03:12:24.798Z,85.17
2022-08-28T03:13:27.029Z,86.02
2022-08-28T03:14:24.748Z,85.82
2022-08-28T03:15:24.754Z,85.82
2022-08-28T03:16:24.777Z,85.92
2022-08-28T03:17:24.736Z,85.96
2022-08-28T03:18:25.283Z,86.27
2022-08-28T03:19:24.710Z,86.37
2022-08-28T03:20:24.719Z,87.90
2022-08-28T03:21:24.689Z,87.59
2022-08-28T03:22:24.665Z,87.29
2022-08-28T03:23:24.655Z,88.40
2022-08-28T03:24:24.686Z,88.20
2022-08-28T03:25:24.621Z,88.10
2022-08-28T03:26:24.634Z,88.40
2022-08-28T03:27:24.667Z,88.40
2022-08-28T03:28:24.687Z,88.61
2022-08-28T03:29:24.621Z,88.71
2022-08-28T03:30:24.631Z,88.00
2022-08-28T03:31:24.589Z,87.90
2022-08-28T03:32:24.629Z,87.90
2022-08-28T03:33:24.538Z,88.24
2022-08-28T03:34:24.574Z,88.55
2022-08-28T03:35:24.536Z,88.75
2022-08-28T03:36:24.524Z,88.45
2022-08-28T03:37:24.487Z,88.34
2022-08-28T03:38:25.393Z,88.90
2022-08-28T03:39:24.512Z,88.59
2022-08-28T03:40:24.526Z,88.69
2022-08-28T03:41:24.484Z,88.90
2022-08-28T03:42:24.602Z,87.98
2022-08-28T03:43:24.452Z,87.77
2022-08-28T03:44:24.447Z,87.47
2022-08-28T03:45:24.408Z,89.71
2022-08-28T03:46:24.487Z,89.30
2022-08-28T03:47:24.416Z,88.59
2022-08-28T03:48:24.425Z,88.28
2022-08-28T03:49:24.375Z,88.39
2022-08-28T03:50:24.427Z,88.32
2022-08-28T03:51:29.600Z,87.71
2022-08-28T03:52:24.368Z,87.82
2022-08-28T03:53:24.364Z,86.18
2022-08-28T03:54:24.334Z,85.57
2022-08-28T03:55:24.401Z,86.02
2022-08-28T03:56:24.341Z,86.83
2022-08-28T03:57:24.292Z,87.45
2022-08-28T03:58:24.305Z,88.57
2022-08-28T03:59:26.656Z,90.66
2022-08-28T04:00:24.305Z,91.16
2022-08-28T04:01:24.247Z,90.75
2022-08-28T04:02:24.203Z,89.12
2022-08-28T04:03:24.218Z,89.23
2022-08-28T04:04:24.233Z,90.70
2022-08-28T04:05:24.192Z,91.41
2022-08-28T04:06:24.195Z,91.92
2022-08-28T04:07:24.136Z,92.74
2022-08-28T04:08:24.146Z,92.33
2022-08-28T04:09:24.104Z,92.54
2022-08-28T04:10:24.137Z,93.76
2022-08-28T04:11:24.120Z,94.89
2022-08-28T04:12:24.152Z,95.39
2022-08-28T04:13:24.138Z,94.78
2022-08-28T04:14:24.106Z,93.45
2022-08-28T04:15:24.044Z,93.05
2022-08-28T04:16:24.165Z,93.15
2022-08-28T04:17:24.048Z,93.15
2022-08-28T04:18:24.055Z,93.15
2022-08-28T04:19:24.018Z,93.15
2022-08-28T04:20:24.007Z,93.96
2022-08-28T04:21:24.077Z,93.76
2022-08-28T04:22:23.991Z,92.94
2022-08-28T04:23:23.951Z,92.64
2022-08-28T04:24:23.992Z,92.94
2022-08-28T04:25:23.996Z,94.37
2022-08-28T04:26:23.964Z,94.82
2022-08-28T04:27:23.979Z,94.62
2022-08-28T04:28:23.987Z,95.44
2022-08-28T04:29:23.958Z,95.54
2022-08-28T04:30:23.913Z,95.23
2022-08-28T04:31:31.750Z,95.60
2022-08-28T04:32:23.938Z,95.80
2022-08-28T04:33:23.864Z,95.60
2022-08-28T04:34:23.869Z,94.98
2022-08-28T04:35:23.827Z,94.89
2022-08-28T04:36:23.851Z,94.37
2022-08-28T04:37:26.175Z,94.27
2022-08-28T04:38:23.832Z,93.45
2022-08-28T04:39:23.807Z,93.35
2022-08-28T04:40:23.841Z,93.86
2022-08-28T04:41:23.788Z,94.78
2022-08-28T04:42:23.825Z,95.70
2022-08-28T04:43:23.783Z,95.90
2022-08-28T04:44:23.769Z,96.01
2022-08-28T04:45:23.756Z,95.56
2022-08-28T04:46:23.717Z,95.35
2022-08-28T04:47:23.758Z,95.04
2022-08-28T04:48:23.749Z,95.04
2022-08-28T04:49:25.952Z,95.25
2022-08-28T04:50:23.721Z,95.65
2022-08-28T04:51:23.729Z,95.56
2022-08-28T04:52:23.694Z,95.56
2022-08-28T04:53:23.688Z,95.25
2022-08-28T04:54:23.644Z,95.65
2022-08-28T04:55:33.809Z,95.65
2022-08-28T04:56:23.680Z,95.45
2022-08-28T04:57:23.672Z,96.27
2022-08-28T04:58:24.272Z,95.86
2022-08-28T04:59:23.598Z,95.56
2022-08-28T05:00:23.642Z,95.56
2022-08-28T05:01:23.694Z,95.25
2022-08-28T05:02:23.580Z,94.94
2022-08-28T05:03:23.579Z,95.86
2022-08-28T05:04:23.590Z,96.37
2022-08-28T05:05:23.623Z,96.88
2022-08-28T05:06:23.540Z,97.45
2022-08-28T05:07:23.529Z,97.24
2022-08-28T05:08:23.606Z,97.04
2022-08-28T05:09:23.599Z,97.14
2022-08-28T05:10:23.507Z,97.14
2022-08-28T05:11:33.475Z,97.14
2022-08-28T05:12:23.508Z,97.04
2022-08-28T05:13:23.545Z,96.94
2022-08-28T05:14:23.491Z,96.63
2022-08-28T05:15:23.461Z,96.63
2022-08-28T05:16:23.548Z,96.38
2022-08-28T05:17:23.489Z,96.28
2022-08-28T05:18:23.413Z,96.28
2022-08-28T05:19:23.463Z,96.38
2022-08-28T05:20:23.424Z,96.28
2022-08-28T05:21:23.377Z,96.18
2022-08-28T05:22:23.410Z,96.38
2022-08-28T05:23:25.672Z,96.48
2022-08-28T05:24:23.401Z,96.38
2022-08-28T05:25:23.326Z,96.28
2022-08-28T05:26:23.324Z,95.97
2022-08-28T05:27:23.341Z,96.18
2022-08-28T05:28:23.316Z,96.38
2022-08-28T05:29:23.511Z,96.28
2022-08-28T05:30:23.254Z,96.28
2022-08-28T05:31:23.348Z,96.28
2022-08-28T05:32:23.304Z,96.18
2022-08-28T05:33:23.294Z,96.18
2022-08-28T05:34:23.285Z,96.28
2022-08-28T05:35:23.236Z,96.08
2022-08-28T05:36:23.250Z,96.08
2022-08-28T05:37:23.283Z,96.03
2022-08-28T05:38:23.298Z,96.03
2022-08-28T05:39:23.185Z,96.14
2022-08-28T05:40:23.209Z,96.03
2022-08-28T05:41:23.218Z,95.93
2022-08-28T05:42:23.188Z,96.03
2022-08-28T05:43:23.146Z,95.93
2022-08-28T05:44:23.219Z,95.73
2022-08-28T05:45:23.107Z,95.73
2022-08-28T05:46:23.178Z,95.73
2022-08-28T05:47:23.111Z,95.83
2022-08-28T05:48:23.091Z,95.83
2022-08-28T05:49:23.149Z,95.83
2022-08-28T05:50:23.070Z,95.73
2022-08-28T05:51:23.084Z,95.37
2022-08-28T05:52:23.092Z,95.37
2022-08-28T05:53:23.070Z,95.37
2022-08-28T05:54:23.007Z,95.28
2022-08-28T05:55:23.059Z,95.17
2022-08-28T05:56:23.036Z,95.07
2022-08-28T05:57:23.074Z,95.07
2022-08-28T05:58:23.025Z,95.17
2022-08-28T05:59:23.001Z,95.17
2022-08-28T06:00:23.004Z,95.13
2022-08-28T06:01:23.210Z,94.92
2022-08-28T06:02:22.974Z,94.72
2022-08-28T06:03:22.932Z,94.72
2022-08-28T06:04:23.003Z,94.52
2022-08-28T06:05:22.900Z,94.42
2022-08-28T06:06:22.904Z,94.17
2022-08-28T06:07:22.865Z,93.86
2022-08-28T06:08:22.981Z,93.76
2022-08-28T06:09:28.130Z,93.41
2022-08-28T06:10:22.896Z,93.31
2022-08-28T06:11:22.886Z,93.31
2022-08-28T06:12:23.005Z,93.01
2022-08-28T06:13:22.845Z,92.65
2022-08-28T06:14:22.841Z,92.25
2022-08-28T06:15:22.985Z,92.14
2022-08-28T06:16:22.848Z,92.00
2022-08-28T06:17:23.590Z,91.80
2022-08-28T06:18:22.790Z,91.29
2022-08-28T06:19:22.778Z,91.09
2022-08-28T06:20:22.764Z,90.88
2022-08-28T06:21:22.758Z,90.88
2022-08-28T06:22:22.750Z,90.53
2022-08-28T06:23:23.899Z,90.33
2022-08-28T06:24:22.721Z,90.13
2022-08-28T06:25:22.710Z,90.03
2022-08-28T06:26:22.723Z,89.58
2022-08-28T06:27:22.722Z,89.58
2022-08-28T06:28:22.682Z,89.58
2022-08-28T06:29:22.654Z,89.28
2022-08-28T06:30:22.662Z,89.03
2022-08-28T06:31:24.426Z,88.93
2022-08-28T06:32:22.729Z,88.62
2022-08-28T06:33:22.647Z,88.52
2022-08-28T06:34:22.618Z,89.09
2022-08-28T06:35:22.634Z,88.78
2022-08-28T06:36:22.658Z,87.97
2022-08-28T06:37:22.567Z,87.57
2022-08-28T06:38:22.587Z,87.52
2022-08-28T06:39:22.573Z,87.43
2022-08-28T06:40:22.618Z,87.02
2022-08-28T06:41:22.521Z,86.61
2022-08-28T06:42:22.493Z,86.61
2022-08-28T06:43:22.499Z,86.57
2022-08-28T06:44:22.516Z,86.16
2022-08-28T06:45:22.601Z,85.96
2022-08-28T06:46:22.516Z,85.76
2022-08-28T06:47:22.498Z,85.76
2022-08-28T06:48:22.463Z,85.66
2022-08-28T06:49:22.453Z,85.56
2022-08-28T06:50:22.492Z,85.01
2022-08-28T06:51:23.109Z,85.21
2022-08-28T06:52:22.408Z,85.21
2022-08-28T06:53:22.391Z,85.21
2022-08-28T06:54:23.586Z,85.01
2022-08-28T06:55:22.391Z,85.01
2022-08-28T06:56:25.895Z,84.50
2022-08-28T06:57:22.392Z,84.41
2022-08-28T06:58:22.327Z,84.36
2022-08-28T06:59:22.381Z,84.06
2022-08-28T07:00:22.393Z,84.16
2022-08-28T07:01:22.359Z,84.27
2022-08-28T07:02:22.433Z,84.36
2022-08-28T07:03:22.293Z,84.16
2022-08-28T07:04:22.265Z,83.65
2022-08-28T07:05:22.301Z,83.55
2022-08-28T07:06:22.268Z,83.11
2022-08-28T07:07:32.618Z,83.11
2022-08-28T07:08:22.270Z,82.81
2022-08-28T07:09:22.469Z,83.51
2022-08-28T07:10:22.373Z,83.61
2022-08-28T07:11:22.182Z,81.90
2022-08-28T07:12:22.179Z,82.40
2022-08-28T07:13:22.200Z,82.87
2022-08-28T07:14:22.207Z,82.36
2022-08-28T07:15:22.158Z,81.85
2022-08-28T07:16:22.208Z,80.84
2022-08-28T07:17:22.135Z,80.54
2022-08-28T07:18:22.107Z,80.44
2022-08-28T07:19:22.099Z,80.24
2022-08-28T07:20:22.852Z,79.79
2022-08-28T07:21:22.064Z,79.79
2022-08-28T07:22:22.083Z,79.69
2022-08-28T07:23:22.045Z,79.79
2022-08-28T07:24:22.069Z,79.08
2022-08-28T07:25:22.024Z,77.64
2022-08-28T07:26:22.041Z,78.34
2022-08-28T07:27:22.021Z,78.04
2022-08-28T07:28:22.009Z,77.84
2022-08-28T07:29:21.989Z,77.73
2022-08-28T07:30:21.996Z,77.53
2022-08-28T07:31:22.033Z,78.30
2022-08-28T07:32:21.953Z,76.79
2022-08-28T07:33:21.977Z,77.19
2022-08-28T07:34:21.938Z,76.89
2022-08-28T07:35:22.002Z,76.89
2022-08-28T07:36:29.044Z,76.48
2022-08-28T07:37:21.940Z,76.69
2022-08-28T07:38:21.889Z,76.69
2022-08-28T07:39:21.954Z,75.74
2022-08-28T07:40:21.963Z,75.24
2022-08-28T07:41:21.885Z,74.90
2022-08-28T07:42:21.885Z,74.69
2022-08-28T07:43:21.859Z,74.66
2022-08-28T07:44:21.864Z,74.12
2022-08-28T07:45:21.872Z,72.51
2022-08-28T07:46:21.885Z,71.77
2022-08-28T07:47:21.896Z,71.37
2022-08-28T07:48:21.783Z,71.64
2022-08-28T07:49:21.813Z,71.53
2022-08-28T07:50:21.765Z,71.80
2022-08-28T07:51:21.767Z,70.19
2022-08-28T07:52:21.752Z,70.09
2022-08-28T07:53:21.769Z,69.56
2022-08-28T07:54:21.706Z,68.55
2022-08-28T07:55:21.731Z,68.35
2022-08-28T07:56:40.945Z,68.85
2022-08-28T08:14:22.911Z,63.85
2022-08-28T08:15:21.079Z,63.45
2022-08-28T08:16:21.703Z,63.25
2022-08-28T08:17:22.233Z,63.56
2022-08-28T08:18:32.280Z,64.36
2022-08-28T08:19:21.052Z,63.76
2022-08-28T08:20:22.402Z,64.16
2022-08-28T08:21:20.816Z,64.86
2022-08-28T08:22:21.380Z,64.73
2022-08-28T08:23:21.036Z,63.02
2022-08-28T08:24:46.295Z,63.32
2022-08-28T08:25:22.111Z,62.99
2022-08-28T08:26:20.013Z,61.99
2022-08-28T08:27:20.684Z,60.85
2022-08-28T08:28:20.664Z,59.92
2022-08-28T08:29:20.647Z,59.72
2022-08-28T08:30:20.678Z,59.92
2022-08-28T08:31:20.689Z,60.29
2022-08-28T08:32:20.639Z,60.57
2022-08-28T08:33:20.607Z,58.16
2022-08-28T08:34:20.636Z,58.18
2022-08-28T08:35:20.606Z,58.59
2022-08-28T08:36:20.615Z,59.65
2022-08-28T08:37:20.595Z,60.18
2022-08-28T08:38:20.574Z,60.38
2022-08-28T08:39:20.560Z,60.38
2022-08-28T08:40:20.623Z,60.78
2022-08-28T08:41:20.551Z,60.75
2022-08-28T08:42:20.567Z,58.94
2022-08-28T08:43:20.504Z,59.45
2022-08-28T08:44:20.517Z,59.95
2022-08-28T08:45:20.523Z,59.95
2022-08-28T08:46:20.561Z,60.35
2022-08-28T08:47:20.481Z,61.33
2022-08-28T08:48:20.486Z,58.79
2022-08-28T08:49:20.461Z,59.49
2022-08-28T08:50:20.453Z,57.48
2022-08-28T08:51:20.442Z,57.86
2022-08-28T08:52:20.454Z,57.86
2022-08-28T08:53:20.430Z,56.98
2022-08-28T08:54:20.410Z,58.06
2022-08-28T08:55:20.390Z,57.98
2022-08-28T08:56:20.395Z,58.79
2022-08-28T08:57:20.392Z,59.09
2022-08-28T08:58:20.385Z,59.09
2022-08-28T08:59:20.366Z,57.89
2022-08-28T09:00:20.354Z,58.69
2022-08-28T09:01:20.434Z,58.62
2022-08-28T09:02:20.361Z,59.01
2022-08-28T09:03:20.345Z,59.05
2022-08-28T09:04:21.464Z,59.17
2022-08-28T09:05:20.313Z,59.27
2022-08-28T09:06:20.293Z,59.80
2022-08-28T09:07:20.290Z,60.53
2022-08-28T09:08:20.299Z,61.04
2022-08-28T09:09:20.266Z,61.14
2022-08-28T09:10:20.251Z,61.14
2022-08-28T09:11:20.255Z,61.44
2022-08-28T09:12:20.244Z,61.51
2022-08-28T09:13:20.235Z,61.41
2022-08-28T09:14:20.550Z,60.91
2022-08-28T09:15:20.203Z,60.18
2022-08-28T09:16:20.539Z,59.88
2022-08-28T09:17:20.209Z,60.21
2022-08-28T09:18:20.184Z,60.61
2022-08-28T09:19:20.162Z,61.11
2022-08-28T09:20:20.162Z,60.51
2022-08-28T09:21:20.180Z,61.08
2022-08-28T09:22:20.151Z,61.38
2022-08-28T09:23:20.142Z,61.96
2022-08-28T09:24:20.124Z,59.12
2022-08-28T09:25:20.137Z,59.79
2022-08-28T09:26:20.088Z,58.29
2022-08-28T09:27:20.083Z,58.18
2022-08-28T09:28:20.093Z,59.16
2022-08-28T09:29:20.077Z,58.16
2022-08-28T09:30:20.048Z,56.93
2022-08-28T09:31:20.347Z,56.52
2022-08-28T09:32:20.038Z,58.00
2022-08-28T09:33:20.042Z,56.10
2022-08-28T09:34:20.020Z,55.90
2022-08-28T09:35:20.011Z,55.90
2022-08-28T09:36:20.000Z,56.00
2022-08-28T09:37:19.995Z,55.77
2022-08-28T09:38:19.999Z,55.07
2022-08-28T09:39:19.972Z,55.30
2022-08-28T09:40:20.022Z,57.40
2022-08-28T09:41:19.959Z,56.07
2022-08-28T09:42:19.926Z,55.07
2022-08-28T09:43:19.996Z,56.27
2022-08-28T09:44:19.921Z,54.97
2022-08-28T09:45:47.839Z,54.87
2022-08-28T09:46:19.973Z,54.67
2022-08-28T09:47:19.877Z,55.35
2022-08-28T09:48:19.916Z,54.24
2022-08-28T09:49:19.881Z,55.15
2022-08-28T09:50:19.890Z,54.24
2022-08-28T09:51:19.856Z,54.42
2022-08-28T09:52:24.956Z,53.52
2022-08-28T09:53:19.833Z,54.02
2022-08-28T09:54:19.845Z,54.72
2022-08-28T09:55:19.808Z,54.32
2022-08-28T09:56:19.801Z,53.55
2022-08-28T09:57:19.801Z,53.09
2022-08-28T09:58:19.785Z,54.39
2022-08-28T09:59:19.760Z,55.00
2022-08-28T10:00:19.765Z,55.00
2022-08-28T10:01:19.782Z,54.30
2022-08-28T10:02:19.737Z,53.89
2022-08-28T10:03:19.727Z,54.00
2022-08-28T10:04:19.802Z,53.72
2022-08-28T10:05:19.718Z,54.32
2022-08-28T10:06:19.703Z,55.02
2022-08-28T10:07:19.715Z,54.62
2022-08-28T10:08:19.691Z,54.55
2022-08-28T10:09:19.656Z,54.85
2022-08-28T10:10:19.677Z,55.82
2022-08-28T10:11:19.629Z,56.60
2022-08-28T10:12:19.635Z,54.70
2022-08-28T10:13:19.624Z,54.10
2022-08-28T10:14:19.627Z,54.39
2022-08-28T10:15:19.599Z,54.70
2022-08-28T10:16:19.653Z,53.69
2022-08-28T10:17:19.836Z,54.97
2022-08-28T10:18:19.580Z,54.37
2022-08-28T10:19:19.556Z,53.97
2022-08-28T10:20:19.573Z,53.57
2022-08-28T10:21:19.539Z,53.37
2022-08-28T10:22:19.531Z,53.80
2022-08-28T10:23:19.520Z,54.39
2022-08-28T10:24:24.775Z,54.52
2022-08-28T10:25:19.520Z,54.93
2022-08-28T10:26:19.485Z,55.70
2022-08-28T10:27:19.478Z,54.70
2022-08-28T10:28:19.478Z,54.37
2022-08-28T10:29:19.448Z,53.94
2022-08-28T10:30:19.482Z,53.55
2022-08-28T10:31:19.503Z,53.44
2022-08-28T10:32:19.432Z,53.05
2022-08-28T10:33:19.411Z,52.74
2022-08-28T10:34:19.407Z,53.14
2022-08-28T10:35:19.409Z,54.77
2022-08-28T10:36:34.267Z,53.17
2022-08-28T10:37:19.378Z,54.07
2022-08-28T10:38:19.363Z,53.94
2022-08-28T10:39:19.353Z,53.34
2022-08-28T10:40:19.438Z,53.32
2022-08-28T10:41:19.351Z,51.79
2022-08-28T10:42:19.323Z,52.19
2022-08-28T10:43:19.324Z,52.09
2022-08-28T10:44:19.306Z,51.77
2022-08-28T10:45:19.297Z,50.97
2022-08-28T10:46:19.354Z,51.27
2022-08-28T10:47:19.278Z,50.07
2022-08-28T10:48:19.270Z,49.97
2022-08-28T10:49:19.247Z,50.27
2022-08-28T10:50:19.246Z,50.20
2022-08-28T10:51:19.237Z,49.79
2022-08-28T10:52:19.223Z,50.59
2022-08-28T10:53:19.215Z,49.49
2022-08-28T10:54:19.200Z,49.59
2022-08-28T10:55:19.189Z,50.02
2022-08-28T10:56:19.182Z,50.70
2022-08-28T10:57:19.160Z,50.32
2022-08-28T10:58:24.714Z,51.29
2022-08-28T10:59:19.139Z,50.89
2022-08-28T11:00:19.151Z,50.79
2022-08-28T11:01:19.155Z,50.59
2022-08-28T11:02:19.147Z,51.07
2022-08-28T11:03:34.015Z,51.75
2022-08-28T11:04:25.227Z,49.72
2022-08-28T11:05:19.083Z,49.10
2022-08-28T11:06:19.091Z,49.25
2022-08-28T11:07:19.069Z,48.87
2022-08-28T11:08:19.055Z,49.59
2022-08-28T11:09:19.035Z,49.91
2022-08-28T11:10:19.028Z,50.62
2022-08-28T11:11:19.010Z,50.09
2022-08-28T11:12:18.998Z,49.90
2022-08-28T11:13:18.988Z,50.77
2022-08-28T11:14:19.004Z,50.24
2022-08-28T11:15:18.955Z,50.04
2022-08-28T11:16:19.048Z,48.32
2022-08-28T11:17:18.944Z,48.52
2022-08-28T11:18:18.940Z,49.32
2022-08-28T11:19:18.935Z,48.72
2022-08-28T11:20:18.911Z,48.22
2022-08-28T11:21:18.929Z,48.13
2022-08-28T11:22:18.901Z,49.22
2022-08-28T11:23:18.891Z,47.71
2022-08-28T11:24:18.883Z,49.20
2022-08-28T11:25:18.860Z,47.85
2022-08-28T11:26:18.865Z,48.57
2022-08-28T11:27:18.849Z,48.90
2022-08-28T11:28:18.845Z,49.40
2022-08-28T11:29:18.824Z,49.72
2022-08-28T11:30:18.841Z,50.34
2022-08-28T11:31:25.674Z,50.04
2022-08-28T11:32:18.790Z,50.24
2022-08-28T11:33:18.784Z,50.22
2022-08-28T11:34:18.776Z,49.09
2022-08-28T11:35:18.759Z,49.09
2022-08-28T11:36:18.738Z,48.90
2022-08-28T11:37:18.728Z,48.97
2022-08-28T11:38:20.080Z,48.25
2022-08-28T11:39:18.702Z,47.13
2022-08-28T11:40:18.851Z,47.10
2022-08-28T11:41:18.720Z,47.50
2022-08-28T11:42:18.697Z,47.10
2022-08-28T11:43:18.669Z,47.33
2022-08-28T11:44:18.656Z,48.40
2022-08-28T11:45:18.665Z,47.10
2022-08-28T11:46:22.190Z,48.22
2022-08-28T11:47:18.649Z,48.32
2022-08-28T11:48:18.618Z,47.15
2022-08-28T11:49:18.606Z,47.75
2022-08-28T11:50:18.610Z,47.65
2022-08-28T11:51:18.578Z,47.85
2022-08-28T11:52:18.589Z,48.13
2022-08-28T11:53:18.575Z,47.20
2022-08-28T11:54:18.558Z,47.10
2022-08-28T11:55:18.553Z,47.08
2022-08-28T11:56:30.441Z,45.59
2022-08-28T11:57:18.513Z,46.78
2022-08-28T11:58:18.510Z,46.14
2022-08-28T11:59:18.523Z,45.84
2022-08-28T12:00:18.496Z,45.14
2022-08-28T12:01:18.477Z,45.59
2022-08-28T12:02:18.509Z,46.28
2022-08-28T12:03:18.464Z,46.41
2022-08-28T12:04:18.515Z,46.28
2022-08-28T12:05:18.463Z,46.58
2022-08-28T12:06:18.440Z,45.98
2022-08-28T12:07:18.407Z,45.89
2022-08-28T12:08:18.424Z,45.39
2022-08-28T12:09:18.394Z,46.28
2022-08-28T12:10:18.402Z,46.58
2022-08-28T12:11:18.375Z,45.86
2022-08-28T12:12:18.380Z,45.26
2022-08-28T12:13:18.345Z,45.47
2022-08-28T12:14:18.346Z,46.76
2022-08-28T12:15:18.331Z,46.84
2022-08-28T12:16:18.436Z,46.64
2022-08-28T12:17:18.305Z,45.86
2022-08-28T12:18:18.309Z,45.39
2022-08-28T12:19:18.291Z,45.98
2022-08-28T12:20:18.288Z,46.31
2022-08-28T12:21:18.291Z,47.05
2022-08-28T12:22:18.279Z,47.37
2022-08-28T12:23:18.263Z,47.67
2022-08-28T12:24:18.267Z,47.15
2022-08-28T12:25:18.222Z,47.25
2022-08-28T12:26:18.234Z,46.13
2022-08-28T12:27:18.208Z,46.53
2022-08-28T12:28:18.207Z,46.01
2022-08-28T12:29:18.190Z,45.48
2022-08-28T12:30:18.182Z,45.89
2022-08-28T12:31:18.230Z,44.19
2022-08-28T12:32:18.216Z,44.99
2022-08-28T12:33:18.134Z,45.78
2022-08-28T12:34:18.134Z,45.78
2022-08-28T12:35:18.127Z,45.29
2022-08-28T12:36:18.128Z,45.81
2022-08-28T12:37:18.096Z,46.55
2022-08-28T12:38:18.095Z,47.15
2022-08-28T12:39:18.076Z,47.07
2022-08-28T12:40:18.185Z,47.37
2022-08-28T12:41:18.075Z,47.67
2022-08-28T12:42:18.055Z,48.65
2022-08-28T12:43:18.040Z,47.33
2022-08-28T12:44:18.032Z,46.73
2022-08-28T12:45:18.007Z,47.98
2022-08-28T12:46:19.883Z,46.96
2022-08-28T12:47:17.994Z,45.86
2022-08-28T12:48:18.002Z,45.86
2022-08-28T12:49:17.963Z,45.68
2022-08-28T12:50:17.971Z,46.50
2022-08-28T12:51:17.977Z,47.03
2022-08-28T12:52:17.952Z,47.55
2022-08-28T12:53:17.919Z,48.45
2022-08-28T12:54:17.934Z,48.37
2022-08-28T12:55:21.312Z,48.37
2022-08-28T12:56:17.928Z,48.57
2022-08-28T12:57:17.908Z,48.65
2022-08-28T12:58:17.918Z,48.72
2022-08-28T12:59:17.864Z,48.70
2022-08-28T13:00:17.864Z,47.28
2022-08-28T13:01:17.922Z,45.89
2022-08-28T13:02:17.960Z,44.89
2022-08-28T13:03:17.816Z,45.78
2022-08-28T13:04:17.844Z,45.39
2022-08-28T13:05:17.818Z,45.76
2022-08-28T13:06:17.817Z,46.34
2022-08-28T13:07:17.782Z,44.53
2022-08-28T13:08:17.787Z,44.35
2022-08-28T13:09:17.769Z,44.35